sensor_id;sensor_type;location;lat;lon;timestamp;P1;durP1;ratioP1;P2;durP2;ratioP2
71395;SDS011;59888;55.814;37.132;2023-11-21T00:01:13;7.25;;;2.97;;
71395;SDS011;59888;55.814;37.132;2023-11-21T00:03:39;5.68;;;2.80;;
71395;SDS011;59888;55.814;37.132;2023-11-21T00:06:05;7.70;;;3.10;;
71395;SDS011;59888;55.814;37.132;2023-11-21T00:08:35;7.32;;;2.92;;
71395;SDS011;59888;55.814;37.132;2023-11-21T00:11:02;5.97;;;3.28;;
71395;SDS011;59888;55.814;37.132;2023-11-21T00:13:33;6.80;;;2.90;;
71395;SDS011;59888;55.814;37.132;2023-11-21T00:16:00;6.60;;;3.03;;
71395;SDS011;59888;55.814;37.132;2023-11-21T00:18:26;11.98;;;3.10;;
71395;SDS011;59888;55.814;37.132;2023-11-21T00:20:52;8.00;;;3.15;;
71395;SDS011;59888;55.814;37.132;2023-11-21T00:23:19;5.70;;;2.95;;
71395;SDS011;59888;55.814;37.132;2023-11-21T00:25:45;6.75;;;2.97;;
71395;SDS011;59888;55.814;37.132;2023-11-21T00:28:11;6.95;;;2.88;;
71395;SDS011;59888;55.814;37.132;2023-11-21T00:30:37;6.95;;;3.17;;
71395;SDS011;59888;55.814;37.132;2023-11-21T00:33:08;8.82;;;2.78;;
71395;SDS011;59888;55.814;37.132;2023-11-21T00:35:34;4.80;;;2.65;;
71395;SDS011;59888;55.814;37.132;2023-11-21T00:38:01;7.28;;;2.78;;
71395;SDS011;59888;55.814;37.132;2023-11-21T00:40:27;6.03;;;3.10;;
71395;SDS011;59888;55.814;37.132;2023-11-21T00:42:53;8.15;;;2.92;;
71395;SDS011;59888;55.814;37.132;2023-11-21T00:45:21;6.07;;;2.60;;
71395;SDS011;59888;55.814;37.132;2023-11-21T00:47:47;5.88;;;3.05;;
71395;SDS011;59888;55.814;37.132;2023-11-21T00:50:13;6.03;;;2.85;;
71395;SDS011;59888;55.814;37.132;2023-11-21T00:52:41;5.85;;;2.60;;
71395;SDS011;59888;55.814;37.132;2023-11-21T00:55:07;6.25;;;2.55;;
71395;SDS011;59888;55.814;37.132;2023-11-21T00:57:34;6.78;;;2.72;;
71395;SDS011;59888;55.814;37.132;2023-11-21T01:00:01;4.80;;;2.70;;
71395;SDS011;59888;55.814;37.132;2023-11-21T01:02:30;6.20;;;2.67;;
71395;SDS011;59888;55.814;37.132;2023-11-21T01:04:55;6.50;;;2.63;;
71395;SDS011;59888;55.814;37.132;2023-11-21T01:07:22;8.02;;;2.40;;
71395;SDS011;59888;55.814;37.132;2023-11-21T01:09:48;5.95;;;2.50;;
71395;SDS011;59888;55.814;37.132;2023-11-21T01:12:14;4.20;;;2.50;;
71395;SDS011;59888;55.814;37.132;2023-11-21T01:14:40;5.93;;;2.65;;
71395;SDS011;59888;55.814;37.132;2023-11-21T01:17:06;5.60;;;2.45;;
71395;SDS011;59888;55.814;37.132;2023-11-21T01:19:32;4.40;;;2.13;;
71395;SDS011;59888;55.814;37.132;2023-11-21T01:21:59;5.70;;;2.83;;
71395;SDS011;59888;55.814;37.132;2023-11-21T01:24:25;6.82;;;2.70;;
71395;SDS011;59888;55.814;37.132;2023-11-21T01:26:51;6.47;;;3.00;;
71395;SDS011;59888;55.814;37.132;2023-11-21T01:29:18;5.13;;;2.40;;
71395;SDS011;59888;55.814;37.132;2023-11-21T01:31:49;5.03;;;2.50;;
71395;SDS011;59888;55.814;37.132;2023-11-21T01:34:15;5.90;;;3.00;;
71395;SDS011;59888;55.814;37.132;2023-11-21T01:36:41;6.63;;;3.00;;
71395;SDS011;59888;55.814;37.132;2023-11-21T01:39:07;5.20;;;2.40;;
71395;SDS011;59888;55.814;37.132;2023-11-21T01:41:39;5.43;;;2.92;;
71395;SDS011;59888;55.814;37.132;2023-11-21T01:44:05;6.05;;;2.83;;
71395;SDS011;59888;55.814;37.132;2023-11-21T01:46:33;6.28;;;2.38;;
71395;SDS011;59888;55.814;37.132;2023-11-21T01:48:59;4.50;;;2.53;;
71395;SDS011;59888;55.814;37.132;2023-11-21T01:51:25;5.18;;;2.40;;
71395;SDS011;59888;55.814;37.132;2023-11-21T01:53:52;5.55;;;2.42;;
71395;SDS011;59888;55.814;37.132;2023-11-21T01:56:18;5.38;;;2.53;;
71395;SDS011;59888;55.814;37.132;2023-11-21T01:58:44;7.03;;;2.45;;
71395;SDS011;59888;55.814;37.132;2023-11-21T02:03:57;5.38;;;2.78;;
71395;SDS011;59888;55.814;37.132;2023-11-21T02:06:23;4.15;;;1.98;;
71395;SDS011;59888;55.814;37.132;2023-11-21T02:08:52;6.18;;;2.22;;
71395;SDS011;59888;55.814;37.132;2023-11-21T02:11:19;4.88;;;2.33;;
71395;SDS011;59888;55.814;37.132;2023-11-21T02:13:46;4.65;;;2.30;;
71395;SDS011;59888;55.814;37.132;2023-11-21T02:16:15;4.13;;;2.20;;
71395;SDS011;59888;55.814;37.132;2023-11-21T02:18:42;6.00;;;2.15;;
71395;SDS011;59888;55.814;37.132;2023-11-21T02:21:08;4.35;;;2.05;;
71395;SDS011;59888;55.814;37.132;2023-11-21T02:23:35;5.88;;;2.33;;
71395;SDS011;59888;55.814;37.132;2023-11-21T02:26:02;6.25;;;2.80;;
71395;SDS011;59888;55.814;37.132;2023-11-21T02:28:30;6.57;;;2.53;;
71395;SDS011;59888;55.814;37.132;2023-11-21T02:30:55;5.70;;;2.40;;
71395;SDS011;59888;55.814;37.132;2023-11-21T02:33:23;6.65;;;2.80;;
71395;SDS011;59888;55.814;37.132;2023-11-21T02:35:50;5.10;;;2.60;;
71395;SDS011;59888;55.814;37.132;2023-11-21T02:38:20;7.32;;;2.90;;
71395;SDS011;59888;55.814;37.132;2023-11-21T02:40:47;5.68;;;2.70;;
71395;SDS011;59888;55.814;37.132;2023-11-21T02:43:14;5.90;;;2.83;;
71395;SDS011;59888;55.814;37.132;2023-11-21T02:45:40;8.63;;;3.15;;
71395;SDS011;59888;55.814;37.132;2023-11-21T02:48:07;6.10;;;2.90;;
71395;SDS011;59888;55.814;37.132;2023-11-21T02:50:33;7.93;;;2.92;;
71395;SDS011;59888;55.814;37.132;2023-11-21T02:53:00;6.90;;;3.13;;
71395;SDS011;59888;55.814;37.132;2023-11-21T02:55:27;5.28;;;2.58;;
71395;SDS011;59888;55.814;37.132;2023-11-21T02:57:54;5.95;;;2.78;;
71395;SDS011;59888;55.814;37.132;2023-11-21T03:00:22;6.45;;;2.72;;
71395;SDS011;59888;55.814;37.132;2023-11-21T03:02:50;5.10;;;2.80;;
71395;SDS011;59888;55.814;37.132;2023-11-21T03:05:16;7.50;;;2.85;;
71395;SDS011;59888;55.814;37.132;2023-11-21T03:07:42;7.32;;;2.72;;
71395;SDS011;59888;55.814;37.132;2023-11-21T03:10:08;7.38;;;3.40;;
71395;SDS011;59888;55.814;37.132;2023-11-21T03:12:39;6.13;;;2.95;;
71395;SDS011;59888;55.814;37.132;2023-11-21T03:15:07;8.38;;;3.53;;
71395;SDS011;59888;55.814;37.132;2023-11-21T03:17:34;6.88;;;2.63;;
71395;SDS011;59888;55.814;37.132;2023-11-21T03:20:00;6.32;;;3.45;;
71395;SDS011;59888;55.814;37.132;2023-11-21T03:22:26;7.78;;;3.40;;
71395;SDS011;59888;55.814;37.132;2023-11-21T03:24:53;7.65;;;2.83;;
71395;SDS011;59888;55.814;37.132;2023-11-21T03:27:19;8.07;;;3.30;;
71395;SDS011;59888;55.814;37.132;2023-11-21T03:29:45;5.95;;;2.65;;
71395;SDS011;59888;55.814;37.132;2023-11-21T03:32:12;6.43;;;2.65;;
71395;SDS011;59888;55.814;37.132;2023-11-21T03:34:52;5.95;;;2.60;;
71395;SDS011;59888;55.814;37.132;2023-11-21T03:37:23;5.95;;;2.95;;
71395;SDS011;59888;55.814;37.132;2023-11-21T03:39:50;6.68;;;2.70;;
71395;SDS011;59888;55.814;37.132;2023-11-21T03:42:27;6.32;;;2.83;;
71395;SDS011;59888;55.814;37.132;2023-11-21T03:44:53;8.27;;;2.90;;
71395;SDS011;59888;55.814;37.132;2023-11-21T03:47:20;7.72;;;3.03;;
71395;SDS011;59888;55.814;37.132;2023-11-21T03:49:46;7.50;;;2.53;;
71395;SDS011;59888;55.814;37.132;2023-11-21T03:52:15;6.20;;;2.65;;
71395;SDS011;59888;55.814;37.132;2023-11-21T03:54:41;3.92;;;2.05;;
71395;SDS011;59888;55.814;37.132;2023-11-21T03:57:09;11.88;;;2.55;;
71395;SDS011;59888;55.814;37.132;2023-11-21T03:59:35;4.35;;;2.20;;
71395;SDS011;59888;55.814;37.132;2023-11-21T04:02:07;6.10;;;2.90;;
71395;SDS011;59888;55.814;37.132;2023-11-21T04:04:33;5.72;;;2.50;;
71395;SDS011;59888;55.814;37.132;2023-11-21T04:07:00;5.68;;;2.60;;
71395;SDS011;59888;55.814;37.132;2023-11-21T04:09:26;4.25;;;2.42;;
71395;SDS011;59888;55.814;37.132;2023-11-21T04:11:52;5.25;;;2.28;;
71395;SDS011;59888;55.814;37.132;2023-11-21T04:14:18;5.68;;;2.60;;
71395;SDS011;59888;55.814;37.132;2023-11-21T04:16:45;6.70;;;2.65;;
71395;SDS011;59888;55.814;37.132;2023-11-21T04:19:11;4.53;;;2.42;;
71395;SDS011;59888;55.814;37.132;2023-11-21T04:21:45;5.18;;;2.50;;
71395;SDS011;59888;55.814;37.132;2023-11-21T04:24:46;4.78;;;2.42;;
71395;SDS011;59888;55.814;37.132;2023-11-21T04:27:12;6.32;;;2.88;;
71395;SDS011;59888;55.814;37.132;2023-11-21T04:29:42;5.55;;;2.20;;
71395;SDS011;59888;55.814;37.132;2023-11-21T04:32:11;3.88;;;2.17;;
71395;SDS011;59888;55.814;37.132;2023-11-21T04:34:38;5.07;;;2.30;;
71395;SDS011;59888;55.814;37.132;2023-11-21T04:37:07;4.88;;;2.38;;
71395;SDS011;59888;55.814;37.132;2023-11-21T04:39:37;5.07;;;2.30;;
71395;SDS011;59888;55.814;37.132;2023-11-21T04:42:08;5.38;;;2.70;;
71395;SDS011;59888;55.814;37.132;2023-11-21T04:44:34;4.70;;;2.60;;
71395;SDS011;59888;55.814;37.132;2023-11-21T04:47:00;7.43;;;2.40;;
71395;SDS011;59888;55.814;37.132;2023-11-21T04:49:28;4.78;;;2.22;;
71395;SDS011;59888;55.814;37.132;2023-11-21T04:51:56;6.00;;;2.60;;
71395;SDS011;59888;55.814;37.132;2023-11-21T04:54:22;4.55;;;2.50;;
71395;SDS011;59888;55.814;37.132;2023-11-21T04:56:48;5.72;;;2.60;;
71395;SDS011;59888;55.814;37.132;2023-11-21T04:59:14;4.25;;;2.15;;
71395;SDS011;59888;55.814;37.132;2023-11-21T05:01:40;8.23;;;2.50;;
71395;SDS011;59888;55.814;37.132;2023-11-21T05:04:06;5.63;;;2.10;;
71395;SDS011;59888;55.814;37.132;2023-11-21T05:06:34;5.53;;;2.40;;
71395;SDS011;59888;55.814;37.132;2023-11-21T05:09:00;5.50;;;2.63;;
71395;SDS011;59888;55.814;37.132;2023-11-21T05:11:37;6.18;;;2.30;;
71395;SDS011;59888;55.814;37.132;2023-11-21T05:14:03;5.45;;;2.47;;
71395;SDS011;59888;55.814;37.132;2023-11-21T05:16:31;6.30;;;2.30;;
71395;SDS011;59888;55.814;37.132;2023-11-21T05:18:57;7.32;;;2.80;;
71395;SDS011;59888;55.814;37.132;2023-11-21T05:21:34;5.50;;;2.63;;
71395;SDS011;59888;55.814;37.132;2023-11-21T05:24:01;6.95;;;2.67;;
71395;SDS011;59888;55.814;37.132;2023-11-21T05:26:27;9.15;;;3.50;;
71395;SDS011;59888;55.814;37.132;2023-11-21T05:28:53;5.15;;;2.38;;
71395;SDS011;59888;55.814;37.132;2023-11-21T05:31:20;6.80;;;2.63;;
71395;SDS011;59888;55.814;37.132;2023-11-21T05:33:46;6.30;;;2.47;;
71395;SDS011;59888;55.814;37.132;2023-11-21T05:36:12;9.38;;;2.95;;
71395;SDS011;59888;55.814;37.132;2023-11-21T05:38:38;5.80;;;3.03;;
71395;SDS011;59888;55.814;37.132;2023-11-21T05:41:05;8.40;;;3.22;;
71395;SDS011;59888;55.814;37.132;2023-11-21T05:43:31;7.47;;;2.72;;
71395;SDS011;59888;55.814;37.132;2023-11-21T05:46:01;6.95;;;2.67;;
71395;SDS011;59888;55.814;37.132;2023-11-21T05:48:27;8.77;;;2.85;;
71395;SDS011;59888;55.814;37.132;2023-11-21T05:50:53;6.63;;;2.38;;
71395;SDS011;59888;55.814;37.132;2023-11-21T05:53:19;8.48;;;2.58;;
71395;SDS011;59888;55.814;37.132;2023-11-21T05:55:46;5.68;;;2.47;;
71395;SDS011;59888;55.814;37.132;2023-11-21T05:58:12;7.10;;;2.38;;
71395;SDS011;59888;55.814;37.132;2023-11-21T06:00:39;7.25;;;2.47;;
71395;SDS011;59888;55.814;37.132;2023-11-21T06:03:06;4.55;;;2.03;;
71395;SDS011;59888;55.814;37.132;2023-11-21T06:05:33;5.95;;;2.78;;
71395;SDS011;59888;55.814;37.132;2023-11-21T06:07:59;4.88;;;2.20;;
71395;SDS011;59888;55.814;37.132;2023-11-21T06:10:28;5.15;;;2.70;;
71395;SDS011;59888;55.814;37.132;2023-11-21T06:12:55;5.07;;;2.47;;
71395;SDS011;59888;55.814;37.132;2023-11-21T06:15:21;5.07;;;2.47;;
71395;SDS011;59888;55.814;37.132;2023-11-21T06:17:50;6.07;;;3.03;;
71395;SDS011;59888;55.814;37.132;2023-11-21T06:20:20;8.43;;;2.88;;
71395;SDS011;59888;55.814;37.132;2023-11-21T06:25:34;5.95;;;2.83;;
71395;SDS011;59888;55.814;37.132;2023-11-21T06:28:02;6.07;;;3.00;;
71395;SDS011;59888;55.814;37.132;2023-11-21T06:30:28;6.32;;;2.83;;
71395;SDS011;59888;55.814;37.132;2023-11-21T06:32:54;8.68;;;3.20;;
71395;SDS011;59888;55.814;37.132;2023-11-21T06:35:21;7.43;;;3.20;;
71395;SDS011;59888;55.814;37.132;2023-11-21T06:37:48;6.05;;;3.13;;
71395;SDS011;59888;55.814;37.132;2023-11-21T06:40:18;7.05;;;3.28;;
71395;SDS011;59888;55.814;37.132;2023-11-21T06:42:44;8.88;;;3.03;;
71395;SDS011;59888;55.814;37.132;2023-11-21T06:45:11;7.75;;;3.35;;
71395;SDS011;59888;55.814;37.132;2023-11-21T06:47:38;5.78;;;3.00;;
71395;SDS011;59888;55.814;37.132;2023-11-21T06:50:05;7.32;;;2.90;;
71395;SDS011;59888;55.814;37.132;2023-11-21T06:52:34;7.40;;;3.03;;
71395;SDS011;59888;55.814;37.132;2023-11-21T06:55:00;8.35;;;3.40;;
71395;SDS011;59888;55.814;37.132;2023-11-21T06:57:31;5.90;;;3.20;;
71395;SDS011;59888;55.814;37.132;2023-11-21T06:59:58;8.05;;;3.47;;
71395;SDS011;59888;55.814;37.132;2023-11-21T07:02:24;7.53;;;3.10;;
71395;SDS011;59888;55.814;37.132;2023-11-21T07:04:52;6.70;;;3.20;;
71395;SDS011;59888;55.814;37.132;2023-11-21T07:07:19;7.53;;;3.58;;
71395;SDS011;59888;55.814;37.132;2023-11-21T07:09:45;9.35;;;3.70;;
71395;SDS011;59888;55.814;37.132;2023-11-21T07:12:11;7.85;;;4.05;;
71395;SDS011;59888;55.814;37.132;2023-11-21T07:14:37;6.90;;;3.03;;
71395;SDS011;59888;55.814;37.132;2023-11-21T07:17:09;9.57;;;4.13;;
71395;SDS011;59888;55.814;37.132;2023-11-21T07:19:43;9.85;;;3.97;;
71395;SDS011;59888;55.814;37.132;2023-11-21T07:22:09;8.00;;;3.38;;
71395;SDS011;59888;55.814;37.132;2023-11-21T07:24:36;8.52;;;3.92;;
71395;SDS011;59888;55.814;37.132;2023-11-21T07:27:02;9.60;;;4.10;;
71395;SDS011;59888;55.814;37.132;2023-11-21T07:29:30;11.82;;;4.00;;
71395;SDS011;59888;55.814;37.132;2023-11-21T07:32:06;11.05;;;4.22;;
71395;SDS011;59888;55.814;37.132;2023-11-21T07:34:35;7.03;;;3.55;;
71395;SDS011;59888;55.814;37.132;2023-11-21T07:37:02;10.20;;;3.58;;
71395;SDS011;59888;55.814;37.132;2023-11-21T07:39:28;7.03;;;3.65;;
71395;SDS011;59888;55.814;37.132;2023-11-21T07:41:55;8.55;;;3.55;;
71395;SDS011;59888;55.814;37.132;2023-11-21T07:44:21;8.60;;;3.85;;
71395;SDS011;59888;55.814;37.132;2023-11-21T07:46:48;10.68;;;3.63;;
71395;SDS011;59888;55.814;37.132;2023-11-21T07:49:17;7.90;;;3.75;;
71395;SDS011;59888;55.814;37.132;2023-11-21T07:51:45;8.35;;;3.63;;
71395;SDS011;59888;55.814;37.132;2023-11-21T07:54:12;7.28;;;3.63;;
71395;SDS011;59888;55.814;37.132;2023-11-21T07:56:38;5.57;;;3.10;;
71395;SDS011;59888;55.814;37.132;2023-11-21T07:59:04;6.15;;;3.22;;
71395;SDS011;59888;55.814;37.132;2023-11-21T08:01:30;8.35;;;3.47;;
71395;SDS011;59888;55.814;37.132;2023-11-21T08:03:57;8.25;;;3.78;;
71395;SDS011;59888;55.814;37.132;2023-11-21T08:06:27;7.50;;;4.10;;
71395;SDS011;59888;55.814;37.132;2023-11-21T08:08:54;7.00;;;3.50;;
71395;SDS011;59888;55.814;37.132;2023-11-21T08:11:20;9.35;;;3.58;;
71395;SDS011;59888;55.814;37.132;2023-11-21T08:13:46;9.18;;;3.75;;
71395;SDS011;59888;55.814;37.132;2023-11-21T08:16:13;10.27;;;3.35;;
71395;SDS011;59888;55.814;37.132;2023-11-21T08:18:39;8.38;;;3.70;;
71395;SDS011;59888;55.814;37.132;2023-11-21T08:21:06;6.47;;;3.10;;
71395;SDS011;59888;55.814;37.132;2023-11-21T08:23:34;7.60;;;3.28;;
71395;SDS011;59888;55.814;37.132;2023-11-21T08:26:01;7.13;;;3.40;;
71395;SDS011;59888;55.814;37.132;2023-11-21T08:28:31;5.75;;;3.20;;
71395;SDS011;59888;55.814;37.132;2023-11-21T08:30:57;6.60;;;3.05;;
71395;SDS011;59888;55.814;37.132;2023-11-21T08:33:29;4.32;;;2.65;;
71395;SDS011;59888;55.814;37.132;2023-11-21T08:35:56;5.97;;;3.00;;
71395;SDS011;59888;55.814;37.132;2023-11-21T08:38:22;4.85;;;2.72;;
71395;SDS011;59888;55.814;37.132;2023-11-21T08:40:49;7.65;;;2.58;;
71395;SDS011;59888;55.814;37.132;2023-11-21T08:43:15;5.35;;;2.70;;
71395;SDS011;59888;55.814;37.132;2023-11-21T08:45:42;9.88;;;2.83;;
71395;SDS011;59888;55.814;37.132;2023-11-21T08:48:08;10.23;;;3.03;;
71395;SDS011;59888;55.814;37.132;2023-11-21T08:50:34;6.72;;;2.90;;
71395;SDS011;59888;55.814;37.132;2023-11-21T08:53:00;5.28;;;2.53;;
71395;SDS011;59888;55.814;37.132;2023-11-21T08:55:27;5.00;;;2.38;;
71395;SDS011;59888;55.814;37.132;2023-11-21T08:57:53;6.88;;;2.20;;
71395;SDS011;59888;55.814;37.132;2023-11-21T09:00:20;4.50;;;1.95;;
71395;SDS011;59888;55.814;37.132;2023-11-21T09:02:47;5.50;;;2.30;;
71395;SDS011;59888;55.814;37.132;2023-11-21T09:05:13;5.18;;;2.45;;
71395;SDS011;59888;55.814;37.132;2023-11-21T09:07:41;6.38;;;2.70;;
71395;SDS011;59888;55.814;37.132;2023-11-21T09:10:10;5.97;;;2.70;;
71395;SDS011;59888;55.814;37.132;2023-11-21T09:12:36;5.50;;;2.90;;
71395;SDS011;59888;55.814;37.132;2023-11-21T09:15:04;6.47;;;2.28;;
71395;SDS011;59888;55.814;37.132;2023-11-21T09:17:32;6.28;;;3.10;;
71395;SDS011;59888;55.814;37.132;2023-11-21T09:20:00;6.53;;;2.85;;
71395;SDS011;59888;55.814;37.132;2023-11-21T09:22:27;4.72;;;2.38;;
71395;SDS011;59888;55.814;37.132;2023-11-21T09:24:55;4.75;;;2.20;;
71395;SDS011;59888;55.814;37.132;2023-11-21T09:27:23;6.13;;;2.42;;
71395;SDS011;59888;55.814;37.132;2023-11-21T09:29:51;5.15;;;2.45;;
71395;SDS011;59888;55.814;37.132;2023-11-21T09:32:20;3.72;;;2.13;;
71395;SDS011;59888;55.814;37.132;2023-11-21T09:34:48;4.68;;;2.22;;
71395;SDS011;59888;55.814;37.132;2023-11-21T09:37:16;4.78;;;2.22;;
71395;SDS011;59888;55.814;37.132;2023-11-21T09:39:43;4.55;;;2.10;;
71395;SDS011;59888;55.814;37.132;2023-11-21T09:42:13;4.35;;;2.00;;
71395;SDS011;59888;55.814;37.132;2023-11-21T09:47:38;4.65;;;1.95;;
71395;SDS011;59888;55.814;37.132;2023-11-21T09:50:05;6.35;;;2.30;;
71395;SDS011;59888;55.814;37.132;2023-11-21T09:52:45;5.22;;;2.20;;
71395;SDS011;59888;55.814;37.132;2023-11-21T09:55:16;4.55;;;2.10;;
71395;SDS011;59888;55.814;37.132;2023-11-21T09:57:47;3.97;;;1.73;;
71395;SDS011;59888;55.814;37.132;2023-11-21T10:00:14;4.47;;;1.73;;
71395;SDS011;59888;55.814;37.132;2023-11-21T10:02:44;7.63;;;2.42;;
71395;SDS011;59888;55.814;37.132;2023-11-21T10:05:13;6.78;;;2.00;;
71395;SDS011;59888;55.814;37.132;2023-11-21T10:07:39;6.35;;;2.33;;
71395;SDS011;59888;55.814;37.132;2023-11-21T10:10:08;4.05;;;2.00;;
71395;SDS011;59888;55.814;37.132;2023-11-21T10:12:35;3.40;;;1.88;;
71395;SDS011;59888;55.814;37.132;2023-11-21T10:15:02;4.63;;;2.30;;
71395;SDS011;59888;55.814;37.132;2023-11-21T10:17:31;3.97;;;1.90;;
71395;SDS011;59888;55.814;37.132;2023-11-21T10:20:10;3.60;;;1.70;;
71395;SDS011;59888;55.814;37.132;2023-11-21T10:22:42;3.85;;;2.00;;
71395;SDS011;59888;55.814;37.132;2023-11-21T10:25:09;5.57;;;2.45;;
71395;SDS011;59888;55.814;37.132;2023-11-21T10:27:38;5.65;;;2.00;;
71395;SDS011;59888;55.814;37.132;2023-11-21T10:30:05;3.28;;;1.77;;
71395;SDS011;59888;55.814;37.132;2023-11-21T10:32:33;5.65;;;1.98;;
71395;SDS011;59888;55.814;37.132;2023-11-21T10:34:59;6.35;;;1.95;;
71395;SDS011;59888;55.814;37.132;2023-11-21T10:37:29;7.93;;;2.15;;
71395;SDS011;59888;55.814;37.132;2023-11-21T10:39:58;6.53;;;2.22;;
71395;SDS011;59888;55.814;37.132;2023-11-21T10:42:25;6.43;;;2.38;;
71395;SDS011;59888;55.814;37.132;2023-11-21T10:44:53;4.10;;;1.83;;
71395;SDS011;59888;55.814;37.132;2023-11-21T10:47:19;5.40;;;2.20;;
71395;SDS011;59888;55.814;37.132;2023-11-21T10:49:49;6.18;;;1.92;;
71395;SDS011;59888;55.814;37.132;2023-11-21T10:52:15;3.88;;;2.22;;
71395;SDS011;59888;55.814;37.132;2023-11-21T10:54:45;3.47;;;1.70;;
71395;SDS011;59888;55.814;37.132;2023-11-21T10:57:11;5.50;;;2.40;;
71395;SDS011;59888;55.814;37.132;2023-11-21T10:59:42;4.60;;;1.95;;
71395;SDS011;59888;55.814;37.132;2023-11-21T11:02:19;5.80;;;2.50;;
71395;SDS011;59888;55.814;37.132;2023-11-21T11:04:50;4.10;;;1.95;;
71395;SDS011;59888;55.814;37.132;2023-11-21T11:07:18;4.22;;;2.15;;
71395;SDS011;59888;55.814;37.132;2023-11-21T11:09:49;3.28;;;1.63;;
71395;SDS011;59888;55.814;37.132;2023-11-21T11:12:16;5.28;;;1.90;;
71395;SDS011;59888;55.814;37.132;2023-11-21T11:14:44;3.35;;;1.75;;
71395;SDS011;59888;55.814;37.132;2023-11-21T11:17:10;4.30;;;2.13;;
71395;SDS011;59888;55.814;37.132;2023-11-21T11:19:36;5.30;;;2.33;;
71395;SDS011;59888;55.814;37.132;2023-11-21T11:22:19;3.88;;;1.90;;
71395;SDS011;59888;55.814;37.132;2023-11-21T11:25:27;6.45;;;1.83;;
71395;SDS011;59888;55.814;37.132;2023-11-21T11:28:20;5.75;;;1.92;;
71395;SDS011;59888;55.814;37.132;2023-11-21T11:31:01;5.20;;;1.92;;
71395;SDS011;59888;55.814;37.132;2023-11-21T11:39:03;4.30;;;2.00;;
71395;SDS011;59888;55.814;37.132;2023-11-21T11:41:49;6.18;;;2.22;;
71395;SDS011;59888;55.814;37.132;2023-11-21T11:47:31;4.63;;;2.05;;
71395;SDS011;59888;55.814;37.132;2023-11-21T11:50:09;3.83;;;1.92;;
71395;SDS011;59888;55.814;37.132;2023-11-21T11:52:43;6.43;;;2.50;;
71395;SDS011;59888;55.814;37.132;2023-11-21T11:55:13;4.78;;;2.53;;
71395;SDS011;59888;55.814;37.132;2023-11-21T11:57:45;5.97;;;2.70;;
71395;SDS011;59888;55.814;37.132;2023-11-21T12:00:13;7.50;;;2.95;;
71395;SDS011;59888;55.814;37.132;2023-11-21T12:02:47;3.75;;;2.30;;
71395;SDS011;59888;55.814;37.132;2023-11-21T12:05:15;4.97;;;1.95;;
71395;SDS011;59888;55.814;37.132;2023-11-21T12:07:47;5.40;;;2.10;;
71395;SDS011;59888;55.814;37.132;2023-11-21T12:10:22;4.25;;;2.13;;
71395;SDS011;59888;55.814;37.132;2023-11-21T12:12:52;5.03;;;1.83;;
71395;SDS011;59888;55.814;37.132;2023-11-21T12:15:20;5.07;;;2.05;;
71395;SDS011;59888;55.814;37.132;2023-11-21T12:17:47;4.80;;;2.30;;
71395;SDS011;59888;55.814;37.132;2023-11-21T12:20:18;4.43;;;2.20;;
71395;SDS011;59888;55.814;37.132;2023-11-21T12:22:45;3.80;;;1.98;;
71395;SDS011;59888;55.814;37.132;2023-11-21T12:25:18;5.15;;;2.15;;
71395;SDS011;59888;55.814;37.132;2023-11-21T12:27:45;6.38;;;2.47;;
71395;SDS011;59888;55.814;37.132;2023-11-21T12:30:15;4.07;;;2.13;;
71395;SDS011;59888;55.814;37.132;2023-11-21T12:32:43;5.40;;;2.53;;
71395;SDS011;59888;55.814;37.132;2023-11-21T12:35:11;4.78;;;2.20;;
71395;SDS011;59888;55.814;37.132;2023-11-21T12:37:38;5.68;;;2.38;;
71395;SDS011;59888;55.814;37.132;2023-11-21T12:40:06;5.53;;;2.13;;
71395;SDS011;59888;55.814;37.132;2023-11-21T12:42:38;4.78;;;1.98;;
71395;SDS011;59888;55.814;37.132;2023-11-21T12:45:07;4.53;;;2.05;;
71395;SDS011;59888;55.814;37.132;2023-11-21T12:47:34;4.15;;;2.10;;
71395;SDS011;59888;55.814;37.132;2023-11-21T12:50:02;4.50;;;2.25;;
71395;SDS011;59888;55.814;37.132;2023-11-21T12:52:29;5.85;;;2.40;;
71395;SDS011;59888;55.814;37.132;2023-11-21T12:54:55;4.55;;;2.22;;
71395;SDS011;59888;55.814;37.132;2023-11-21T12:57:25;4.82;;;2.10;;
71395;SDS011;59888;55.814;37.132;2023-11-21T13:02:26;5.20;;;2.60;;
71395;SDS011;59888;55.814;37.132;2023-11-21T13:04:53;6.47;;;2.60;;
71395;SDS011;59888;55.814;37.132;2023-11-21T13:07:19;4.25;;;2.20;;
71395;SDS011;59888;55.814;37.132;2023-11-21T13:09:51;6.10;;;2.17;;
71395;SDS011;59888;55.814;37.132;2023-11-21T13:12:23;4.65;;;2.40;;
71395;SDS011;59888;55.814;37.132;2023-11-21T13:14:50;4.97;;;2.65;;
71395;SDS011;59888;55.814;37.132;2023-11-21T13:17:17;3.60;;;2.03;;
71395;SDS011;59888;55.814;37.132;2023-11-21T13:19:44;4.63;;;2.58;;
71395;SDS011;59888;55.814;37.132;2023-11-21T13:22:10;4.20;;;2.25;;
71395;SDS011;59888;55.814;37.132;2023-11-21T13:24:36;6.47;;;2.35;;
71395;SDS011;59888;55.814;37.132;2023-11-21T13:27:02;5.25;;;2.47;;
71395;SDS011;59888;55.814;37.132;2023-11-21T13:29:29;4.97;;;2.55;;
71395;SDS011;59888;55.814;37.132;2023-11-21T13:31:55;6.20;;;2.60;;
71395;SDS011;59888;55.814;37.132;2023-11-21T13:34:21;5.30;;;2.80;;
71395;SDS011;59888;55.814;37.132;2023-11-21T13:36:51;4.60;;;2.47;;
71395;SDS011;59888;55.814;37.132;2023-11-21T13:39:24;6.28;;;2.38;;
71395;SDS011;59888;55.814;37.132;2023-11-21T13:41:54;7.50;;;2.45;;
71395;SDS011;59888;55.814;37.132;2023-11-21T13:44:20;4.93;;;2.60;;
71395;SDS011;59888;55.814;37.132;2023-11-21T13:46:54;5.90;;;2.53;;
71395;SDS011;59888;55.814;37.132;2023-11-21T13:49:22;5.63;;;2.60;;
71395;SDS011;59888;55.814;37.132;2023-11-21T13:51:49;5.75;;;2.80;;
71395;SDS011;59888;55.814;37.132;2023-11-21T13:54:17;5.18;;;2.78;;
71395;SDS011;59888;55.814;37.132;2023-11-21T13:56:46;8.32;;;2.72;;
71395;SDS011;59888;55.814;37.132;2023-11-21T13:59:12;5.93;;;2.80;;
71395;SDS011;59888;55.814;37.132;2023-11-21T14:02:06;6.38;;;2.95;;
71395;SDS011;59888;55.814;37.132;2023-11-21T14:04:45;6.13;;;2.88;;
71395;SDS011;59888;55.814;37.132;2023-11-21T14:07:23;6.53;;;3.00;;
71395;SDS011;59888;55.814;37.132;2023-11-21T14:10:01;7.60;;;3.22;;
71395;SDS011;59888;55.814;37.132;2023-11-21T14:12:29;6.55;;;2.75;;
71395;SDS011;59888;55.814;37.132;2023-11-21T14:14:59;6.18;;;3.00;;
71395;SDS011;59888;55.814;37.132;2023-11-21T14:17:26;6.07;;;2.90;;
71395;SDS011;59888;55.814;37.132;2023-11-21T14:19:53;5.70;;;3.00;;
71395;SDS011;59888;55.814;37.132;2023-11-21T14:22:21;6.50;;;3.17;;
71395;SDS011;59888;55.814;37.132;2023-11-21T14:24:47;6.75;;;3.00;;
71395;SDS011;59888;55.814;37.132;2023-11-21T14:27:16;6.82;;;2.80;;
71395;SDS011;59888;55.814;37.132;2023-11-21T14:29:41;5.10;;;2.97;;
71395;SDS011;59888;55.814;37.132;2023-11-21T14:32:09;6.43;;;2.97;;
71395;SDS011;59888;55.814;37.132;2023-11-21T14:34:36;5.03;;;2.90;;
71395;SDS011;59888;55.814;37.132;2023-11-21T14:37:02;7.22;;;2.70;;
71395;SDS011;59888;55.814;37.132;2023-11-21T14:39:28;6.05;;;2.65;;
71395;SDS011;59888;55.814;37.132;2023-11-21T14:41:56;8.07;;;2.80;;
71395;SDS011;59888;55.814;37.132;2023-11-21T14:44:23;5.28;;;2.42;;
71395;SDS011;59888;55.814;37.132;2023-11-21T14:46:52;6.05;;;2.92;;
71395;SDS011;59888;55.814;37.132;2023-11-21T14:49:20;7.20;;;3.00;;
71395;SDS011;59888;55.814;37.132;2023-11-21T14:51:53;5.43;;;2.92;;
71395;SDS011;59888;55.814;37.132;2023-11-21T14:54:27;5.65;;;2.63;;
71395;SDS011;59888;55.814;37.132;2023-11-21T14:57:09;6.55;;;2.70;;
71395;SDS011;59888;55.814;37.132;2023-11-21T14:59:47;6.30;;;2.67;;